createdAt,value
2023-10-26T00:04:00.822Z,95213.16
2023-10-26T00:14:04.346Z,95199.67
2023-10-26T00:24:08.707Z,95193.59
2023-10-26T00:34:12.053Z,95199.70
2023-10-26T00:44:15.143Z,95195.20
2023-10-26T00:54:21.455Z,95195.67
2023-10-26T01:04:24.804Z,95198.11
2023-10-26T01:14:29.172Z,95196.50
2023-10-26T01:24:32.722Z,95202.98
2023-10-26T01:34:36.069Z,95191.73
2023-10-26T01:44:40.695Z,95175.89
2023-10-26T01:54:44.361Z,95179.33
2023-10-26T02:04:47.865Z,95181.52
2023-10-26T02:14:51.220Z,95162.20
2023-10-26T02:24:54.522Z,95136.84
2023-10-26T02:34:57.955Z,95119.36
2023-10-26T02:45:01.278Z,95112.57
2023-10-26T02:55:07.095Z,95098.69
2023-10-26T03:05:10.456Z,95088.82
2023-10-26T03:15:13.826Z,95093.36
2023-10-26T03:25:18.406Z,95095.45
2023-10-26T03:35:21.559Z,95084.61
2023-10-26T03:45:28.495Z,95091.23
2023-10-26T03:55:31.786Z,95099.41
2023-10-26T04:05:35.633Z,95092.73
2023-10-26T04:15:38.871Z,95072.48
2023-10-26T04:25:53.746Z,95059.76
2023-10-26T04:36:01.348Z,95068.79
2023-10-26T04:46:04.902Z,95066.12
2023-10-26T04:56:08.265Z,95074.06
2023-10-26T05:06:11.869Z,95070.98
2023-10-26T05:16:15.377Z,95068.88
2023-10-26T05:26:18.610Z,95079.88
2023-10-26T05:36:21.836Z,95077.93
2023-10-26T05:46:25.265Z,95083.46
2023-10-26T05:56:28.469Z,95081.59
2023-10-26T06:06:31.758Z,95087.59
2023-10-26T06:16:35.489Z,95105.71
2023-10-26T06:26:39.034Z,95117.27
2023-10-26T06:36:42.404Z,95101.91
2023-10-26T06:46:45.693Z,95096.88
2023-10-26T06:56:49.344Z,95091.03
2023-10-26T07:06:52.470Z,95085.48
2023-10-26T07:16:55.823Z,95082.27
2023-10-26T07:26:59.288Z,95075.48
2023-10-26T07:37:02.583Z,95056.30
2023-10-26T07:47:10.131Z,95045.92
2023-10-26T07:57:13.702Z,95047.46
2023-10-26T08:07:17.046Z,95031.82
2023-10-26T08:17:20.660Z,95014.45
2023-10-26T08:27:25.169Z,95016.95
2023-10-26T08:37:29.427Z,95024.48
2023-10-26T08:47:33.698Z,95015.13
2023-10-26T08:57:52.155Z,95006.48
2023-10-26T09:07:55.748Z,95008.48
2023-10-26T09:17:59.302Z,95023.30
2023-10-26T09:28:06.535Z,95023.23
2023-10-26T09:38:09.892Z,95016.98
2023-10-26T09:48:13.372Z,94991.86
2023-10-26T09:58:17.970Z,94991.90
2023-10-26T10:08:58.803Z,94992.55
2023-10-26T10:19:21.974Z,94982.17
2023-10-26T10:29:25.029Z,94981.36
2023-10-26T10:39:28.221Z,94986.67
2023-10-26T10:49:31.729Z,94980.48
2023-10-26T10:59:34.868Z,94978.30
2023-10-26T11:09:41.273Z,94973.70
2023-10-26T11:19:44.831Z,94971.18
2023-10-26T11:30:02.511Z,94974.67
2023-10-26T11:40:07.676Z,94964.69
2023-10-26T11:50:21.137Z,94969.98
2023-10-26T12:00:25.651Z,94964.69
2023-10-26T12:10:29.011Z,94962.88
2023-10-26T12:20:32.163Z,94960.37
2023-10-26T12:30:35.784Z,94949.55
2023-10-26T12:40:39.172Z,94956.11
2023-10-26T12:50:42.195Z,94961.45
2023-10-26T13:00:46.639Z,94964.39
2023-10-26T13:10:49.806Z,94973.66
2023-10-26T13:20:52.888Z,94969.98
2023-10-26T13:30:55.968Z,94966.39
2023-10-26T13:40:59.411Z,94963.13
2023-10-26T13:51:02.532Z,94962.04
2023-10-26T14:01:13.878Z,94962.52
2023-10-26T14:11:17.507Z,94969.96
2023-10-26T14:21:20.664Z,94970.83
2023-10-26T14:31:26.417Z,94970.96
2023-10-26T14:41:29.928Z,94976.16
2023-10-26T14:51:33.250Z,94995.06
2023-10-26T15:01:37.070Z,95012.35
2023-10-26T15:11:50.778Z,95023.76
2023-10-26T15:22:01.419Z,95030.32
2023-10-26T15:32:05.178Z,95033.45
2023-10-26T15:42:16.082Z,95041.62
2023-10-26T15:52:19.521Z,95037.17
2023-10-26T16:02:23.100Z,95046.31
2023-10-26T16:12:26.771Z,95053.86
2023-10-26T16:22:29.870Z,95061.71
2023-10-26T16:32:36.074Z,95071.38
2023-10-26T16:42:39.326Z,95082.48
2023-10-26T16:52:42.782Z,95074.13
2023-10-26T17:02:47.453Z,95061.52
2023-10-26T17:12:50.800Z,95046.28
2023-10-26T17:22:53.869Z,95033.83
2023-10-26T17:32:57.583Z,95033.77
2023-10-26T17:43:00.777Z,95028.54
2023-10-26T17:53:03.969Z,95038.24
2023-10-26T18:03:07.240Z,95042.89
2023-10-26T18:13:11.571Z,95044.27
2023-10-26T18:23:14.731Z,95042.73
2023-10-26T18:33:18.334Z,95057.20
2023-10-26T18:43:23.135Z,95058.66
2023-10-26T18:53:27.126Z,95055.80
2023-10-26T19:03:35.973Z,95055.69
2023-10-26T19:13:41.575Z,95062.60
2023-10-26T19:23:44.809Z,95070.59
2023-10-26T19:33:49.568Z,95058.41
2023-10-26T19:43:53.510Z,95041.34
2023-10-26T19:53:56.581Z,95038.71
2023-10-26T20:03:59.791Z,95024.05
2023-10-26T20:14:04.110Z,95021.27
2023-10-26T20:24:09.455Z,95020.73
2023-10-26T20:34:18.486Z,95031.16
2023-10-26T20:44:21.918Z,95037.55
2023-10-26T20:54:25.136Z,95045.61
2023-10-26T21:04:28.383Z,95060.87
2023-10-26T21:14:32.171Z,95050.64
2023-10-26T21:24:35.449Z,95038.06
2023-10-26T21:34:38.624Z,95017.24
2023-10-26T21:44:41.730Z,95009.91
2023-10-26T21:54:45.004Z,95010.29
2023-10-26T22:04:50.369Z,95008.95
2023-10-26T22:14:54.858Z,95006.45
2023-10-26T22:24:57.868Z,95002.59
2023-10-26T22:35:02.285Z,94998.34
2023-10-26T22:45:06.301Z,94998.88
2023-10-26T22:55:09.461Z,95010.64
2023-10-26T23:05:12.685Z,95008.50
2023-10-26T23:15:16.217Z,94992.27
2023-10-26T23:25:19.414Z,95004.52
2023-10-26T23:35:22.532Z,94977.67
2023-10-26T23:45:26.083Z,94967.14
2023-10-26T23:55:29.224Z,94958.02
